Time;durP1;ratioP1;P1;durP2;ratioP2;P2;SDS_P1;SDS_P2;PMS_P1;PMS_P2;Temp;Humidity;BMP_temperature;BMP_pressure;BME280_temperature;BME280_humidity;BME280_pressure;Samples;Min_cycle;Max_cycle;Signal;HPM_P1;HPM_P2
2022/03/03 00:00:25;;;;;;;54.65;42.85;;;5.30;99.90;;;;;;5069049;28;20375;-56
2022/03/03 00:02:50;;;;;;;60.37;44.60;;;5.40;99.90;;;;;;5068632;28;20387;-57
2022/03/03 00:05:16;;;;;;;60.70;44.27;;;5.40;99.90;;;;;;5067871;28;20657;-57
2022/03/03 00:07:42;;;;;;;58.63;44.40;;;5.30;99.90;;;;;;5068497;28;20442;-57
2022/03/03 00:10:09;;;;;;;59.13;44.63;;;5.30;99.90;;;;;;5070280;28;20586;-56
2022/03/03 00:12:35;;;;;;;60.13;44.25;;;5.20;99.90;;;;;;5071611;28;20379;-57
2022/03/03 00:15:01;;;;;;;66.07;47.20;;;5.20;99.90;;;;;;5070465;28;20468;-55
2022/03/03 00:17:27;;;;;;;60.42;45.45;;;5.00;99.90;;;;;;5070310;28;20425;-57
2022/03/03 00:19:52;;;;;;;62.45;45.75;;;5.00;99.90;;;;;;5069784;28;20383;-55
2022/03/03 00:22:18;;;;;;;61.53;43.90;;;5.00;99.90;;;;;;5071953;28;20486;-55
2022/03/03 00:24:44;;;;;;;57.87;43.37;;;5.00;99.90;;;;;;5074789;28;20387;-57
2022/03/03 00:27:11;;;;;;;55.90;42.40;;;4.90;99.90;;;;;;5077013;28;20664;-53
2022/03/03 00:29:36;;;;;;;55.70;40.78;;;4.90;99.90;;;;;;5076495;28;20387;-57
2022/03/03 00:32:02;;;;;;;56.47;41.28;;;4.80;99.90;;;;;;5076229;28;20613;-56
2022/03/03 00:34:28;;;;;;;53.42;39.83;;;4.70;99.90;;;;;;5075036;28;20405;-57
2022/03/03 00:36:53;;;;;;;52.08;39.15;;;4.60;99.90;;;;;;5073920;28;20387;-56
2022/03/03 00:39:19;;;;;;;54.10;40.30;;;4.60;99.90;;;;;;5074713;28;20660;-56
2022/03/03 00:41:44;;;;;;;55.27;40.60;;;4.60;99.90;;;;;;5072811;28;20379;-54
2022/03/03 00:44:10;;;;;;;53.40;39.73;;;4.60;99.90;;;;;;5071734;28;20664;-55
2022/03/03 00:46:36;;;;;;;52.55;37.88;;;4.60;99.90;;;;;;5073582;28;20784;-57
2022/03/03 00:49:03;;;;;;;52.35;40.25;;;4.70;99.90;;;;;;5072150;28;20495;-56
2022/03/03 00:51:28;;;;;;;51.67;37.97;;;4.70;99.90;;;;;;5072447;28;20451;-54
2022/03/03 00:53:54;;;;;;;50.63;37.90;;;4.80;99.90;;;;;;5074188;28;20407;-57
2022/03/03 00:56:20;;;;;;;52.40;38.78;;;4.80;99.90;;;;;;5074794;28;20663;-57
2022/03/03 00:58:47;;;;;;;49.03;36.40;;;4.90;99.90;;;;;;5074451;28;20420;-57
2022/03/03 01:01:13;;;;;;;46.50;36.17;;;4.80;99.90;;;;;;5073069;28;20408;-55
2022/03/03 01:03:39;;;;;;;42.80;33.80;;;4.80;99.90;;;;;;5073432;28;20703;-57
2022/03/03 01:06:05;;;;;;;41.40;32.47;;;4.70;99.90;;;;;;5071964;28;20387;-56
2022/03/03 01:08:31;;;;;;;39.42;31.60;;;4.50;99.90;;;;;;5073650;28;20407;-57
2022/03/03 01:10:56;;;;;;;38.45;31.92;;;4.50;99.90;;;;;;5074079;28;20449;-58
2022/03/03 01:13:22;;;;;;;38.80;30.87;;;4.50;99.90;;;;;;5072916;28;20987;-56
2022/03/03 01:15:49;;;;;;;40.17;32.37;;;4.60;99.90;;;;;;5072951;28;20671;-55
2022/03/03 01:18:15;;;;;;;36.60;30.48;;;4.60;99.90;;;;;;5073046;28;20387;-58
2022/03/03 01:20:41;;;;;;;38.80;30.80;;;4.60;99.90;;;;;;5072816;28;20718;-57
2022/03/03 01:23:06;;;;;;;38.73;31.57;;;4.40;99.90;;;;;;5074411;28;20686;-57
2022/03/03 01:25:32;;;;;;;37.63;30.30;;;4.50;99.90;;;;;;5073191;28;20379;-58
2022/03/03 01:27:59;;;;;;;34.30;29.13;;;4.40;99.90;;;;;;5055706;28;20841;-57
2022/03/03 01:30:25;;;;;;;34.85;29.30;;;4.50;99.90;;;;;;5072543;28;20441;-56
2022/03/03 01:32:50;;;;;;;36.73;30.13;;;4.60;99.90;;;;;;5071692;28;20395;-58
2022/03/03 01:35:16;;;;;;;37.30;30.42;;;4.60;99.90;;;;;;5072454;28;20404;-58
2022/03/03 01:37:41;;;;;;;37.93;31.03;;;4.60;99.90;;;;;;5074737;28;20466;-57
2022/03/03 01:40:07;;;;;;;36.40;29.57;;;4.60;99.90;;;;;;5073346;28;20390;-56
2022/03/03 01:42:33;;;;;;;36.33;29.67;;;4.50;99.90;;;;;;5073024;28;20379;-57
2022/03/03 01:44:59;;;;;;;38.10;30.80;;;4.50;99.90;;;;;;5072993;28;20397;-55
2022/03/03 01:47:26;;;;;;;38.43;30.83;;;4.40;99.90;;;;;;5072434;28;20383;-57
2022/03/03 01:49:54;;;;;;;39.90;32.17;;;4.20;99.90;;;;;;5071983;28;20711;-58
2022/03/03 01:52:20;;;;;;;37.55;29.90;;;4.30;99.90;;;;;;5071622;28;20466;-54
2022/03/03 01:54:46;;;;;;;39.30;30.02;;;4.30;99.90;;;;;;5070189;28;20395;-57
2022/03/03 01:57:15;;;;;;;34.22;29.23;;;4.30;99.90;;;;;;5071165;28;20372;-57
2022/03/03 01:59:40;;;;;;;34.45;28.67;;;4.30;99.90;;;;;;5073250;28;20726;-57
2022/03/03 02:02:08;;;;;;;35.28;29.17;;;4.20;99.90;;;;;;5070399;28;20876;-57
2022/03/03 02:04:34;;;;;;;34.08;27.40;;;4.30;99.90;;;;;;5070796;28;20485;-57
2022/03/03 02:07:00;;;;;;;33.70;28.00;;;4.30;99.90;;;;;;5071168;28;20399;-57
2022/03/03 02:09:26;;;;;;;35.60;29.08;;;4.40;99.90;;;;;;5072800;28;20475;-58
2022/03/03 02:11:51;;;;;;;36.28;28.63;;;4.40;99.90;;;;;;5071564;28;20455;-57
2022/03/03 02:14:18;;;;;;;35.17;28.43;;;4.30;99.90;;;;;;5068738;28;20436;-55
2022/03/03 02:16:43;;;;;;;34.80;27.90;;;4.30;99.90;;;;;;5070497;28;20389;-58
2022/03/03 02:19:23;;;;;;;34.90;28.83;;;4.20;99.90;;;;;;5070365;28;20933;-57
2022/03/03 02:21:51;;;;;;;36.65;29.40;;;4.10;99.90;;;;;;5070137;28;20384;-58
2022/03/03 02:24:18;;;;;;;36.07;28.80;;;4.00;99.90;;;;;;5071530;28;20671;-58
2022/03/03 02:26:45;;;;;;;33.90;28.27;;;4.00;99.90;;;;;;5071812;28;20414;-58
2022/03/03 02:29:11;;;;;;;33.33;27.48;;;3.90;99.90;;;;;;5070624;28;20402;-58
2022/03/03 02:31:36;;;;;;;34.22;27.40;;;3.80;99.90;;;;;;5068129;28;20514;-58
2022/03/03 02:34:02;;;;;;;34.80;28.37;;;3.90;99.90;;;;;;5067020;28;20455;-56
2022/03/03 02:36:28;;;;;;;33.33;27.70;;;3.90;99.90;;;;;;5066306;28;20473;-58
2022/03/03 02:38:56;;;;;;;34.85;28.00;;;3.90;99.90;;;;;;5067323;28;20935;-58
2022/03/03 02:41:23;;;;;;;33.67;27.65;;;3.80;99.90;;;;;;5066907;28;20410;-56
2022/03/03 02:43:48;;;;;;;36.22;27.55;;;3.90;99.90;;;;;;5067450;28;20395;-58
2022/03/03 02:46:14;;;;;;;31.73;26.50;;;3.80;99.90;;;;;;5068183;28;20384;-57
2022/03/03 02:48:40;;;;;;;35.53;27.50;;;3.80;99.90;;;;;;5071491;28;20688;-58
2022/03/03 02:51:07;;;;;;;28.90;24.38;;;3.90;99.90;;;;;;5070024;28;20419;-59
2022/03/03 02:53:33;;;;;;;32.00;25.77;;;4.10;99.90;;;;;;5071578;28;20418;-59
2022/03/03 02:55:59;;;;;;;33.03;25.63;;;4.10;99.90;;;;;;5071323;28;20432;-59
2022/03/03 02:58:24;;;;;;;30.67;25.70;;;4.00;99.90;;;;;;5072887;28;20400;-59
2022/03/03 03:00:51;;;;;;;30.27;24.52;;;3.90;99.90;;;;;;5073278;28;20462;-58
2022/03/03 03:03:18;;;;;;;30.80;24.98;;;3.80;99.90;;;;;;5072187;28;20442;-58
2022/03/03 03:05:45;;;;;;;33.45;26.33;;;3.80;99.90;;;;;;5071241;28;20594;-57
2022/03/03 03:08:10;;;;;;;31.00;24.63;;;3.60;99.90;;;;;;5068637;28;20414;-59
2022/03/03 03:10:37;;;;;;;32.70;25.97;;;3.60;99.90;;;;;;5069046;28;20392;-59
2022/03/03 03:13:04;;;;;;;30.52;24.52;;;3.70;99.90;;;;;;5069049;28;20388;-58
2022/03/03 03:15:29;;;;;;;30.50;25.63;;;3.80;99.90;;;;;;5070566;28;20929;-54
2022/03/03 03:17:55;;;;;;;30.60;25.23;;;3.80;99.90;;;;;;5070905;28;20396;-57
2022/03/03 03:20:20;;;;;;;29.40;24.07;;;3.80;99.90;;;;;;5071544;28;20424;-59
2022/03/03 03:22:46;;;;;;;25.73;21.23;;;3.70;99.90;;;;;;5070486;28;20708;-57
2022/03/03 03:25:13;;;;;;;27.33;22.13;;;3.60;99.90;;;;;;5070123;28;20405;-57
2022/03/03 03:27:41;;;;;;;25.85;21.77;;;3.50;99.90;;;;;;5101280;28;20413;-57
2022/03/03 03:30:09;;;;;;;27.05;22.80;;;3.50;99.90;;;;;;5095319;28;20721;-58
2022/03/03 03:32:35;;;;;;;24.75;20.73;;;3.50;99.90;;;;;;5096268;28;20387;-57
2022/03/03 03:35:01;;;;;;;23.45;19.67;;;3.50;99.90;;;;;;5095018;28;20834;-57
2022/03/03 03:37:27;;;;;;;25.58;20.73;;;3.50;99.90;;;;;;5095830;28;20376;-59
2022/03/03 03:39:52;;;;;;;22.67;19.57;;;3.60;99.90;;;;;;5095969;28;20391;-58
2022/03/03 03:42:18;;;;;;;25.23;20.13;;;3.60;99.90;;;;;;5094815;28;20392;-58
2022/03/03 03:44:44;;;;;;;24.48;20.67;;;3.70;99.90;;;;;;5094813;28;20772;-58
2022/03/03 03:47:10;;;;;;;28.60;21.27;;;3.50;99.90;;;;;;5093234;28;20626;-58
2022/03/03 03:49:36;;;;;;;24.45;20.30;;;3.40;99.90;;;;;;5093270;28;20399;-58
2022/03/03 03:52:02;;;;;;;25.52;19.95;;;3.40;99.90;;;;;;5111942;28;20454;-58
2022/03/03 03:54:28;;;;;;;25.77;21.20;;;3.40;99.90;;;;;;5092266;28;20404;-57
2022/03/03 03:56:53;;;;;;;24.88;21.27;;;3.40;99.90;;;;;;5091343;28;20496;-58
2022/03/03 03:59:19;;;;;;;24.60;19.58;;;3.30;99.90;;;;;;5092679;28;20453;-57
2022/03/03 04:01:45;;;;;;;25.20;20.60;;;3.30;99.90;;;;;;5110959;28;20388;-58
2022/03/03 04:04:10;;;;;;;24.23;19.87;;;3.30;99.90;;;;;;5095081;28;20729;-58
2022/03/03 04:06:36;;;;;;;26.47;20.83;;;3.30;99.90;;;;;;5094344;28;20439;-58
2022/03/03 04:09:03;;;;;;;24.90;20.08;;;3.30;99.90;;;;;;5094901;28;20496;-59
2022/03/03 04:11:29;;;;;;;24.20;19.45;;;3.30;99.90;;;;;;5094120;28;20380;-58
2022/03/03 04:13:56;;;;;;;23.17;19.33;;;3.30;99.90;;;;;;5092480;28;20548;-58
2022/03/03 04:16:23;;;;;;;24.95;19.73;;;3.40;99.90;;;;;;5092092;28;20384;-57
2022/03/03 04:18:48;;;;;;;23.33;19.70;;;3.40;99.90;;;;;;5091848;28;20818;-57
2022/03/03 04:21:14;;;;;;;24.73;20.10;;;3.40;99.90;;;;;;5094033;28;20376;-58
2022/03/03 04:23:39;;;;;;;23.10;19.40;;;3.30;99.90;;;;;;5109302;28;20769;-58
2022/03/03 04:26:05;;;;;;;26.23;21.33;;;3.30;99.90;;;;;;5093443;28;20660;-56
2022/03/03 04:28:30;;;;;;;24.03;19.93;;;3.30;99.90;;;;;;5093624;28;20758;-58
2022/03/03 04:30:56;;;;;;;22.63;19.10;;;3.40;99.90;;;;;;5092944;28;20385;-56
2022/03/03 04:33:21;;;;;;;23.98;18.90;;;3.40;99.90;;;;;;5110449;28;20446;-58
2022/03/03 04:35:47;;;;;;;23.75;18.88;;;3.30;99.90;;;;;;5093377;28;20450;-58
2022/03/03 04:38:13;;;;;;;23.80;19.30;;;3.30;99.90;;;;;;5093261;28;20513;-57
2022/03/03 04:40:38;;;;;;;21.50;17.97;;;3.30;99.90;;;;;;5109265;28;20822;-57
2022/03/03 04:43:04;;;;;;;23.87;18.80;;;3.30;99.90;;;;;;5092183;28;20380;-59
2022/03/03 04:45:29;;;;;;;23.85;19.30;;;3.40;99.90;;;;;;5109997;28;20626;-56
2022/03/03 04:47:55;;;;;;;21.02;17.92;;;3.40;99.90;;;;;;5091979;28;20388;-59
2022/03/03 04:50:20;;;;;;;23.20;18.47;;;3.40;99.90;;;;;;5093693;28;20384;-58
2022/03/03 04:52:46;;;;;;;25.00;19.40;;;3.30;99.90;;;;;;5093507;28;20707;-58
2022/03/03 04:55:12;;;;;;;24.75;19.85;;;3.20;99.90;;;;;;5095162;28;20574;-58
2022/03/03 04:57:37;;;;;;;24.50;19.73;;;3.10;99.90;;;;;;5093948;28;20373;-59
2022/03/03 05:00:06;;;;;;;23.90;19.55;;;3.10;99.90;;;;;;5093291;28;20426;-59
2022/03/03 05:02:31;;;;;;;23.38;18.95;;;3.00;99.90;;;;;;5075396;28;20376;-57
2022/03/03 05:04:57;;;;;;;26.10;20.10;;;3.10;99.90;;;;;;5110229;28;20392;-57
2022/03/03 05:07:23;;;;;;;22.33;18.67;;;3.10;99.90;;;;;;5090121;28;20448;-58
2022/03/03 05:09:48;;;;;;;24.35;18.67;;;3.00;99.90;;;;;;5091282;28;20388;-57
2022/03/03 05:12:14;;;;;;;22.63;18.60;;;2.90;99.90;;;;;;5111956;28;20457;-58
2022/03/03 05:14:39;;;;;;;24.23;19.02;;;3.00;99.90;;;;;;5094248;28;20388;-56
2022/03/03 05:17:05;;;;;;;20.97;17.60;;;3.00;99.90;;;;;;5093875;28;20389;-58
2022/03/03 05:19:31;;;;;;;21.97;17.63;;;3.20;99.90;;;;;;5093522;28;20645;-58
2022/03/03 05:21:57;;;;;;;21.42;18.00;;;3.10;99.90;;;;;;5094887;28;20692;-58
2022/03/03 05:24:22;;;;;;;20.60;17.03;;;3.10;99.90;;;;;;5092583;28;20373;-54
2022/03/03 05:26:48;;;;;;;22.03;17.77;;;3.10;99.90;;;;;;5089826;28;20760;-58
2022/03/03 05:29:14;;;;;;;23.25;18.70;;;3.00;99.90;;;;;;5091121;28;20388;-58
2022/03/03 05:31:41;;;;;;;21.13;17.70;;;2.70;99.90;;;;;;5092827;28;20379;-58
2022/03/03 05:34:07;;;;;;;23.88;17.77;;;2.50;99.90;;;;;;5094421;28;20409;-58
2022/03/03 05:36:38;;;;;;;20.23;16.65;;;2.30;99.90;;;;;;5093843;28;20402;-58
2022/03/03 05:39:05;;;;;;;20.37;16.67;;;2.30;99.90;;;;;;5092696;28;20608;-57
2022/03/03 05:41:31;;;;;;;23.48;17.15;;;2.40;99.90;;;;;;5092069;28;20637;-59
2022/03/03 05:43:57;;;;;;;21.93;17.33;;;2.30;99.90;;;;;;5091589;28;20425;-58
2022/03/03 05:46:23;;;;;;;19.52;15.95;;;2.40;99.90;;;;;;5089758;28;20476;-58
2022/03/03 05:48:49;;;;;;;21.00;16.50;;;2.60;99.90;;;;;;5088923;28;20405;-58
2022/03/03 05:51:15;;;;;;;21.90;17.73;;;2.70;99.90;;;;;;5108094;28;20657;-59
2022/03/03 05:53:41;;;;;;;23.48;18.02;;;2.80;99.90;;;;;;5089109;28;20407;-59
2022/03/03 05:56:11;;;;;;;24.20;18.43;;;2.70;99.90;;;;;;5086363;28;20372;-56
2022/03/03 05:58:47;;;;;;;26.25;16.85;;;2.50;99.90;;;;;;5086082;28;20836;-58
2022/03/03 06:01:15;;;;;;;22.13;18.10;;;2.10;99.90;;;;;;5104391;28;20380;-55
2022/03/03 06:03:41;;;;;;;29.92;17.98;;;1.80;99.90;;;;;;5086621;28;20418;-57
2022/03/03 06:06:17;;;;;;;21.10;17.17;;;1.80;99.90;;;;;;5087918;28;20386;-58
2022/03/03 06:09:14;;;;;;;22.00;18.15;;;1.70;99.90;;;;;;5087432;28;20440;-58
2022/03/03 06:11:48;;;;;;;21.38;17.63;;;1.90;99.90;;;;;;5104138;28;20400;-56
2022/03/03 06:14:23;;;;;;;21.38;17.20;;;2.20;99.90;;;;;;5085902;28;20531;-56
2022/03/03 06:16:50;;;;;;;20.73;17.70;;;2.30;99.90;;;;;;5086736;28;20376;-59
2022/03/03 06:19:19;;;;;;;19.83;16.42;;;2.40;99.90;;;;;;5085111;28;20400;-59
2022/03/03 06:21:44;;;;;;;21.67;18.08;;;2.60;99.90;;;;;;5084920;28;20469;-57
2022/03/03 06:24:10;;;;;;;20.33;16.40;;;2.60;99.90;;;;;;5086116;28;20380;-58
2022/03/03 06:26:36;;;;;;;20.87;16.90;;;2.60;99.90;;;;;;5076472;28;20411;-58
2022/03/03 06:29:02;;;;;;;21.23;16.83;;;2.60;99.90;;;;;;5065699;28;20452;-58
2022/03/03 06:31:28;;;;;;;20.42;16.67;;;2.60;99.90;;;;;;5064061;28;20689;-59
2022/03/03 06:33:53;;;;;;;24.00;17.70;;;2.70;99.90;;;;;;5066320;28;20415;-58
2022/03/03 06:36:19;;;;;;;30.53;18.80;;;2.60;99.90;;;;;;5064052;28;20464;-56
2022/03/03 06:38:45;;;;;;;22.42;17.15;;;2.60;99.90;;;;;;5065981;28;20387;-57
2022/03/03 06:41:10;;;;;;;20.93;16.30;;;2.50;99.90;;;;;;5067060;28;20780;-60
2022/03/03 06:43:37;;;;;;;19.17;16.00;;;2.40;99.90;;;;;;5065597;28;20461;-54
2022/03/03 06:46:04;;;;;;;19.80;16.02;;;2.40;99.90;;;;;;5067418;28;20421;-58
2022/03/03 06:48:29;;;;;;;17.70;15.13;;;2.40;99.90;;;;;;5066908;28;20392;-58
2022/03/03 06:50:56;;;;;;;19.58;15.93;;;2.40;99.90;;;;;;5064628;28;20693;-56
2022/03/03 06:53:35;;;;;;;19.95;16.15;;;2.40;99.90;;;;;;5064453;28;20384;-58
2022/03/03 06:56:11;;;;;;;19.58;14.98;;;2.40;99.90;;;;;;5065253;28;20388;-57
2022/03/03 06:58:37;;;;;;;17.80;15.15;;;2.50;99.90;;;;;;5064307;28;20435;-58
2022/03/03 07:01:05;;;;;;;18.73;16.00;;;2.50;99.90;;;;;;5064068;28;20597;-58
2022/03/03 07:03:31;;;;;;;20.13;16.37;;;2.50;99.90;;;;;;5065543;28;20423;-56
2022/03/03 07:05:57;;;;;;;20.90;16.40;;;2.50;99.90;;;;;;5064923;28;20395;-58
2022/03/03 07:08:23;;;;;;;20.38;16.67;;;2.50;99.90;;;;;;5064253;28;20650;-59
2022/03/03 07:10:48;;;;;;;20.25;16.30;;;2.50;99.90;;;;;;5060807;28;20387;-59
2022/03/03 07:13:17;;;;;;;25.35;17.42;;;2.40;99.90;;;;;;5061164;28;20444;-58
2022/03/03 07:15:49;;;;;;;22.60;16.58;;;2.40;99.90;;;;;;5057543;28;20403;-58
2022/03/03 07:18:33;;;;;;;19.47;15.30;;;2.30;99.90;;;;;;5058197;28;21108;-58
2022/03/03 07:21:47;;;;;;;20.50;15.85;;;2.50;99.90;;;;;;5060491;28;20645;-57
2022/03/03 07:24:19;;;;;;;15.95;13.18;;;2.60;99.90;;;;;;5060372;28;20375;-55
2022/03/03 07:26:47;;;;;;;15.00;12.02;;;2.60;99.90;;;;;;5062373;28;20875;-54
2022/03/03 07:29:16;;;;;;;14.40;11.93;;;2.60;99.90;;;;;;5063774;28;20383;-57
2022/03/03 07:31:53;;;;;;;14.25;12.07;;;2.60;99.90;;;;;;5064686;28;20388;-58
2022/03/03 07:34:26;;;;;;;14.00;11.48;;;2.60;99.90;;;;;;5063029;28;20681;-57
2022/03/03 07:36:56;;;;;;;14.85;11.60;;;2.60;99.90;;;;;;5063217;28;20530;-58
2022/03/03 07:39:30;;;;;;;15.88;11.60;;;2.60;99.90;;;;;;5062616;28;20791;-57
2022/03/03 07:41:56;;;;;;;14.27;11.73;;;2.60;99.90;;;;;;5059771;28;20607;-58
2022/03/03 07:44:21;;;;;;;15.65;12.02;;;2.60;99.90;;;;;;5058995;28;20398;-59
2022/03/03 07:46:47;;;;;;;15.87;12.23;;;2.50;99.90;;;;;;5059196;28;20587;-58
2022/03/03 07:49:13;;;;;;;15.10;11.63;;;2.40;99.90;;;;;;5060027;28;20410;-57
2022/03/03 07:51:40;;;;;;;14.68;11.68;;;2.50;99.90;;;;;;5061842;28;20486;-58
2022/03/03 07:54:05;;;;;;;14.15;11.43;;;2.60;99.90;;;;;;5060629;28;20404;-56
2022/03/03 07:56:40;;;;;;;15.98;11.60;;;2.60;99.90;;;;;;5061788;28;20683;-55
2022/03/03 07:59:11;;;;;;;18.42;12.23;;;2.60;99.90;;;;;;5059133;28;20598;-58
2022/03/03 08:01:37;;;;;;;13.63;11.05;;;2.70;99.90;;;;;;5060613;28;20448;-57
2022/03/03 08:04:03;;;;;;;13.20;10.55;;;2.70;99.90;;;;;;5059462;28;20982;-58
2022/03/03 08:06:30;;;;;;;13.98;10.57;;;2.80;99.90;;;;;;5058119;28;20942;-57
2022/03/03 08:08:58;;;;;;;15.48;11.55;;;2.90;99.90;;;;;;5056994;28;20799;-55
2022/03/03 08:11:26;;;;;;;15.18;11.70;;;2.90;99.90;;;;;;5053848;28;20387;-55
2022/03/03 08:13:52;;;;;;;14.32;11.20;;;2.80;99.90;;;;;;5055610;28;20415;-56
2022/03/03 08:16:18;;;;;;;18.67;13.05;;;2.90;99.90;;;;;;5054835;28;20581;-58
2022/03/03 08:18:45;;;;;;;15.27;11.77;;;2.80;99.90;;;;;;5059234;28;20527;-57
2022/03/03 08:21:13;;;;;;;15.07;11.45;;;2.80;99.90;;;;;;5068080;28;20399;-59
2022/03/03 08:23:40;;;;;;;15.30;11.43;;;2.90;99.90;;;;;;5066850;28;20379;-58
2022/03/03 08:26:06;;;;;;;17.33;11.13;;;2.90;99.90;;;;;;5065982;28;20398;-57
2022/03/03 08:28:32;;;;;;;16.27;11.55;;;3.00;99.90;;;;;;5084716;28;20916;-59
2022/03/03 08:31:04;;;;;;;16.10;10.75;;;3.00;99.90;;;;;;5101820;28;20637;-57
2022/03/03 08:33:38;;;;;;;14.43;10.90;;;3.00;99.90;;;;;;5084276;28;20599;-56
2022/03/03 08:36:13;;;;;;;12.88;10.35;;;3.00;99.90;;;;;;5084549;28;20396;-59
2022/03/03 08:38:46;;;;;;;14.48;10.52;;;3.10;99.90;;;;;;5085353;28;20376;-57
2022/03/03 08:41:14;;;;;;;15.77;11.23;;;3.10;99.90;;;;;;5082712;28;20650;-57
2022/03/03 08:43:42;;;;;;;14.77;11.60;;;3.20;99.90;;;;;;5086796;28;20620;-58
2022/03/03 08:46:08;;;;;;;14.00;10.98;;;3.10;99.90;;;;;;5090771;28;20384;-59
2022/03/03 08:48:34;;;;;;;16.38;11.35;;;3.10;99.90;;;;;;5088221;28;20468;-57
2022/03/03 08:51:01;;;;;;;17.27;12.60;;;3.10;99.90;;;;;;5107134;28;20718;-56
2022/03/03 08:53:26;;;;;;;17.55;11.70;;;3.10;99.90;;;;;;5089282;28;20380;-58
2022/03/03 08:55:58;;;;;;;14.43;10.67;;;3.10;99.90;;;;;;5088856;28;20376;-58
2022/03/03 08:58:25;;;;;;;14.95;11.80;;;3.20;99.90;;;;;;5090592;28;20383;-58
2022/03/03 09:00:50;;;;;;;17.45;12.18;;;3.20;99.90;;;;;;5089909;28;20645;-58
2022/03/03 09:03:22;;;;;;;16.13;12.83;;;3.20;99.90;;;;;;5087303;28;20399;-57
2022/03/03 09:05:48;;;;;;;16.05;11.73;;;3.30;99.90;;;;;;5088280;28;20384;-58
2022/03/03 09:08:14;;;;;;;14.38;11.68;;;3.30;99.90;;;;;;5088863;28;20870;-55
2022/03/03 09:10:40;;;;;;;15.30;11.43;;;3.30;99.90;;;;;;5088072;28;20917;-56
2022/03/03 09:13:06;;;;;;;15.20;11.85;;;3.40;99.90;;;;;;5086216;28;20560;-58
2022/03/03 09:15:32;;;;;;;14.77;11.57;;;3.40;99.90;;;;;;5086854;28;20735;-58
2022/03/03 09:17:58;;;;;;;14.23;10.68;;;3.40;99.90;;;;;;5091110;28;20463;-56
2022/03/03 09:20:23;;;;;;;12.18;10.15;;;3.50;99.90;;;;;;5094488;28;20533;-57
2022/03/03 09:22:49;;;;;;;13.43;10.90;;;3.60;99.90;;;;;;5094072;28;20828;-57
2022/03/03 09:25:15;;;;;;;12.75;10.00;;;3.60;99.90;;;;;;5094064;28;20396;-58
2022/03/03 09:27:40;;;;;;;14.05;10.20;;;3.60;99.90;;;;;;5076730;28;20438;-59
2022/03/03 09:30:09;;;;;;;13.73;10.60;;;3.60;99.90;;;;;;5071103;28;20380;-59
2022/03/03 09:32:35;;;;;;;14.93;10.05;;;3.60;99.90;;;;;;5070831;28;20667;-57
2022/03/03 09:35:01;;;;;;;12.52;9.93;;;3.50;99.90;;;;;;5071221;28;20426;-56
2022/03/03 09:37:27;;;;;;;11.10;8.93;;;3.60;99.90;;;;;;5069856;28;20380;-58
2022/03/03 09:39:53;;;;;;;12.25;9.80;;;3.60;99.90;;;;;;5072351;28;21106;-58
2022/03/03 09:42:19;;;;;;;15.65;10.73;;;3.80;99.90;;;;;;5069820;28;20525;-56
2022/03/03 09:44:46;;;;;;;11.32;8.98;;;3.80;99.90;;;;;;5069886;28;20421;-59
2022/03/03 09:47:14;;;;;;;12.98;9.48;;;3.80;99.90;;;;;;5070791;28;20383;-58
2022/03/03 09:49:40;;;;;;;12.50;9.73;;;3.80;99.90;;;;;;5070793;28;20510;-58
2022/03/03 09:52:17;;;;;;;14.55;10.85;;;3.80;99.90;;;;;;5073002;28;20490;-58
2022/03/03 09:54:46;;;;;;;14.17;10.80;;;3.80;99.90;;;;;;5072393;28;20399;-56
2022/03/03 09:57:12;;;;;;;13.20;10.83;;;3.90;99.90;;;;;;5071917;28;20402;-58
2022/03/03 09:59:38;;;;;;;14.80;10.73;;;3.90;99.90;;;;;;5072056;28;20376;-57
2022/03/03 10:02:05;;;;;;;13.37;9.50;;;3.90;99.90;;;;;;5071449;28;20372;-59
2022/03/03 10:04:32;;;;;;;10.15;8.85;;;3.90;99.90;;;;;;5071701;28;20418;-58
2022/03/03 10:07:03;;;;;;;9.82;7.95;;;4.00;99.90;;;;;;5071776;28;20402;-58
2022/03/03 10:09:29;;;;;;;13.73;9.60;;;4.10;99.90;;;;;;5069942;28;20375;-58
2022/03/03 10:12:05;;;;;;;10.80;8.87;;;4.00;99.90;;;;;;5069017;28;20466;-57
2022/03/03 10:14:33;;;;;;;10.52;8.45;;;3.90;99.90;;;;;;5072059;28;20406;-57
2022/03/03 10:17:00;;;;;;;9.15;6.90;;;3.80;99.90;;;;;;5069983;28;20804;-58
2022/03/03 10:19:25;;;;;;;8.88;7.10;;;3.90;99.90;;;;;;5071288;28;20968;-58
2022/03/03 10:21:51;;;;;;;8.30;6.60;;;4.00;99.90;;;;;;5069268;28;20388;-58
2022/03/03 10:24:28;;;;;;;8.00;6.90;;;4.00;99.90;;;;;;5070619;28;20398;-57
2022/03/03 10:27:02;;;;;;;9.50;7.20;;;4.20;99.90;;;;;;5089303;28;20787;-58
2022/03/03 10:29:28;;;;;;;8.88;6.82;;;4.20;99.90;;;;;;5093710;28;20904;-58
2022/03/03 10:31:55;;;;;;;7.60;6.63;;;4.10;99.90;;;;;;5093436;28;20385;-59
2022/03/03 10:34:30;;;;;;;7.65;6.38;;;4.20;99.90;;;;;;5074613;28;20457;-59
2022/03/03 10:36:59;;;;;;;7.68;6.38;;;4.20;99.90;;;;;;5091447;28;20382;-58
2022/03/03 10:39:36;;;;;;;7.45;5.95;;;4.30;99.90;;;;;;5090742;28;20373;-59
2022/03/03 10:42:15;;;;;;;7.97;5.65;;;4.40;99.90;;;;;;5073023;28;20393;-59
2022/03/03 10:44:41;;;;;;;8.48;6.88;;;4.40;99.90;;;;;;5072167;28;20393;-59
2022/03/03 10:47:11;;;;;;;7.43;5.85;;;4.40;99.90;;;;;;5068650;28;20394;-56
2022/03/03 10:49:38;;;;;;;7.07;5.80;;;4.50;99.90;;;;;;5064853;28;20417;-58
2022/03/03 10:52:24;;;;;;;7.90;6.35;;;4.50;99.90;;;;;;5064767;28;20446;-59
2022/03/03 10:55:12;;;;;;;8.07;6.60;;;4.40;99.90;;;;;;5070086;28;20400;-59
2022/03/03 10:57:58;;;;;;;8.63;5.90;;;4.40;99.90;;;;;;5092846;28;20792;-57
2022/03/03 11:00:26;;;;;;;8.55;7.03;;;4.40;99.90;;;;;;5092607;28;20372;-58
2022/03/03 11:02:57;;;;;;;8.05;6.30;;;4.40;99.90;;;;;;5093061;28;20398;-59
2022/03/03 11:05:25;;;;;;;9.27;6.72;;;4.40;99.90;;;;;;5110647;28;20385;-58
2022/03/03 11:07:57;;;;;;;8.05;6.65;;;4.40;99.90;;;;;;5092486;28;20407;-57
2022/03/03 11:10:25;;;;;;;8.00;6.97;;;4.40;99.90;;;;;;5093417;28;20384;-59
2022/03/03 11:12:51;;;;;;;8.40;6.97;;;4.40;99.90;;;;;;5092806;28;20449;-58
2022/03/03 11:15:19;;;;;;;8.63;7.28;;;4.50;99.90;;;;;;5091895;28;20400;-55
2022/03/03 11:17:46;;;;;;;11.40;8.03;;;4.60;99.90;;;;;;5090089;28;20406;-57
2022/03/03 11:20:15;;;;;;;8.93;7.85;;;4.60;99.90;;;;;;5107583;28;20869;-57
2022/03/03 11:22:44;;;;;;;8.57;7.40;;;4.60;99.90;;;;;;5108894;28;20380;-54
2022/03/03 11:25:14;;;;;;;7.30;6.50;;;4.70;99.90;;;;;;5091267;28;20392;-57
2022/03/03 11:27:41;;;;;;;7.30;6.60;;;4.80;99.90;;;;;;5108816;28;20419;-58
2022/03/03 11:30:34;;;;;;;7.07;6.10;;;5.10;99.90;;;;;;5110600;28;20456;-58
2022/03/03 11:33:30;;;;;;;6.57;5.40;;;5.40;99.90;;;;;;5092537;28;20422;-59
2022/03/03 11:36:05;;;;;;;8.50;6.22;;;5.50;99.90;;;;;;5110221;28;21310;-58
2022/03/03 11:38:45;;;;;;;7.05;6.05;;;5.50;99.90;;;;;;5089718;28;20714;-58
2022/03/03 11:41:10;;;;;;;6.63;5.72;;;5.50;99.90;;;;;;5111971;28;20560;-57
2022/03/03 11:43:59;;;;;;;6.85;6.10;;;5.50;99.90;;;;;;5094335;28;20487;-55
2022/03/03 11:46:44;;;;;;;6.57;5.72;;;5.40;99.90;;;;;;5111208;28;20368;-56
2022/03/03 11:49:18;;;;;;;5.80;5.10;;;5.40;99.90;;;;;;5093763;28;20368;-56
2022/03/03 11:51:47;;;;;;;6.68;5.15;;;5.50;99.90;;;;;;5094284;28;20400;-56
2022/03/03 11:54:12;;;;;;;7.70;6.45;;;5.60;99.90;;;;;;5093551;28;20948;-57
2022/03/03 11:57:03;;;;;;;7.50;6.70;;;5.60;99.90;;;;;;5074261;28;21120;-56
2022/03/03 11:59:48;;;;;;;7.28;5.90;;;5.60;99.90;;;;;;5071203;28;20388;-58
2022/03/03 12:02:18;;;;;;;7.70;6.82;;;5.70;99.90;;;;;;5072107;28;20382;-57
2022/03/03 12:04:44;;;;;;;8.45;6.95;;;5.70;99.90;;;;;;5089142;28;20381;-57
2022/03/03 12:07:29;;;;;;;7.55;6.18;;;5.70;99.90;;;;;;5087561;28;20382;-59
2022/03/03 12:09:56;;;;;;;8.05;6.40;;;5.70;99.90;;;;;;5085822;28;20394;-54
2022/03/03 12:12:24;;;;;;;6.47;5.47;;;5.70;99.90;;;;;;5065480;28;20778;-54
2022/03/03 12:14:54;;;;;;;7.30;5.93;;;5.70;99.90;;;;;;5063819;28;20401;-58
2022/03/03 12:17:54;;;;;;;9.00;6.83;;;5.80;99.90;;;;;;5065473;28;20381;-58
2022/03/03 12:20:40;;;;;;;8.52;6.78;;;6.00;99.90;;;;;;5071679;28;20384;-57
2022/03/03 12:23:07;;;;;;;6.57;5.88;;;6.00;99.90;;;;;;5094012;28;20393;-56
2022/03/03 12:25:51;;;;;;;7.35;6.20;;;6.10;99.90;;;;;;5077298;28;20454;-56
2022/03/03 12:28:18;;;;;;;8.68;6.90;;;6.40;99.90;;;;;;5076668;28;20804;-55
2022/03/03 12:30:44;;;;;;;8.48;6.63;;;6.80;99.90;;;;;;5077085;28;20891;-54
2022/03/03 12:33:24;;;;;;;7.70;6.60;;;6.90;99.90;;;;;;5093859;28;20378;-58
2022/03/03 12:35:51;;;;;;;7.93;6.60;;;7.30;99.90;;;;;;5077264;28;20491;-59
2022/03/03 12:38:17;;;;;;;10.23;7.68;;;8.00;99.90;;;;;;5095196;28;20370;-55
2022/03/03 12:40:44;;;;;;;9.93;7.85;;;8.50;99.90;;;;;;5076700;28;20393;-59
2022/03/03 12:43:15;;;;;;;9.10;6.85;;;8.60;99.90;;;;;;5094622;28;20727;-57
2022/03/03 12:45:41;;;;;;;8.02;6.45;;;8.70;99.90;;;;;;5075417;28;20866;-58